createdAt,value
2023-07-25T00:01:17.480Z,15.05
2023-07-25T00:03:44.053Z,15.02
2023-07-25T00:06:10.606Z,15.03
2023-07-25T00:08:38.631Z,15.02
2023-07-25T00:11:05.186Z,15.02
2023-07-25T00:13:31.765Z,15.04
2023-07-25T00:15:58.310Z,15.08
2023-07-25T00:18:24.916Z,15.10
2023-07-25T00:20:51.478Z,15.09
2023-07-25T00:23:18.016Z,15.09
2023-07-25T00:25:45.919Z,15.07
2023-07-25T00:28:12.485Z,15.05
2023-07-25T00:30:39.138Z,15.05
2023-07-25T00:33:05.752Z,15.07
2023-07-25T00:35:32.447Z,15.05
2023-07-25T00:37:59.046Z,15.01
2023-07-25T00:40:25.799Z,14.98
2023-07-25T00:42:57.071Z,14.95
2023-07-25T00:45:25.193Z,14.96
2023-07-25T00:47:53.474Z,14.96
2023-07-25T00:50:20.159Z,14.94
2023-07-25T00:52:46.757Z,14.94
2023-07-25T00:55:14.011Z,14.93
2023-07-25T00:57:40.602Z,14.93
2023-07-25T01:00:09.320Z,14.93
2023-07-25T01:02:36.093Z,14.94
2023-07-25T01:05:02.770Z,14.96
2023-07-25T01:07:30.271Z,14.93
2023-07-25T01:09:56.861Z,14.93
2023-07-25T01:12:23.374Z,14.93
2023-07-25T01:14:49.977Z,14.90
2023-07-25T01:17:21.531Z,14.88
2023-07-25T01:19:49.811Z,14.89
2023-07-25T01:22:16.824Z,14.87
2023-07-25T01:24:46.460Z,14.89
2023-07-25T01:27:13.794Z,14.87
2023-07-25T01:29:40.554Z,14.84
2023-07-25T01:32:08.320Z,14.80
2023-07-25T01:34:34.968Z,14.76
2023-07-25T01:37:01.692Z,14.69
2023-07-25T01:39:28.235Z,14.60
2023-07-25T01:41:56.150Z,14.54
2023-07-25T01:44:22.699Z,14.53
2023-07-25T01:46:49.252Z,14.52
2023-07-25T01:49:15.803Z,14.53
2023-07-25T01:51:42.352Z,14.53
2023-07-25T01:54:08.927Z,14.57
2023-07-25T01:56:35.497Z,14.62
2023-07-25T01:59:03.480Z,14.60
2023-07-25T02:01:30.425Z,14.56
2023-07-25T02:03:57.444Z,14.50
2023-07-25T02:06:24.004Z,14.50
2023-07-25T02:08:50.573Z,14.50
2023-07-25T02:11:17.159Z,14.46
2023-07-25T02:13:43.712Z,14.39
2023-07-25T02:16:11.695Z,14.38
2023-07-25T02:18:38.291Z,14.37
2023-07-25T02:21:04.861Z,14.33
2023-07-25T02:23:31.421Z,14.31
2023-07-25T02:25:58.016Z,14.34
2023-07-25T02:28:24.624Z,14.38
2023-07-25T02:30:51.299Z,14.35
2023-07-25T02:33:19.172Z,14.35
2023-07-25T02:35:45.700Z,14.32
2023-07-25T02:38:12.375Z,14.28
2023-07-25T02:40:38.881Z,14.32
2023-07-25T02:43:07.923Z,14.23
2023-07-25T02:45:34.698Z,14.16
2023-07-25T02:48:01.467Z,14.12
2023-07-25T02:50:29.458Z,14.12
2023-07-25T02:52:56.002Z,14.08
2023-07-25T02:55:22.658Z,14.04
2023-07-25T02:57:49.211Z,13.99
2023-07-25T03:00:15.976Z,13.97
2023-07-25T03:02:42.554Z,13.98
2023-07-25T03:05:09.738Z,13.98
2023-07-25T03:07:37.668Z,14.01
2023-07-25T03:10:04.904Z,13.95
2023-07-25T03:12:31.446Z,13.89
2023-07-25T03:14:58.071Z,13.87
2023-07-25T03:17:24.793Z,13.83
2023-07-25T03:19:51.502Z,13.81
2023-07-25T03:22:19.321Z,13.81
2023-07-25T03:24:47.982Z,13.74
2023-07-25T03:27:14.888Z,13.70
2023-07-25T03:29:41.735Z,13.70
2023-07-25T03:32:08.691Z,13.67
2023-07-25T03:34:35.272Z,13.70
2023-07-25T03:37:01.879Z,13.71
2023-07-25T03:39:28.819Z,13.75
2023-07-25T03:41:56.721Z,13.77
2023-07-25T03:44:23.339Z,13.77
2023-07-25T03:46:49.897Z,13.78
2023-07-25T03:49:16.830Z,13.78
2023-07-25T03:51:43.398Z,13.78
2023-07-25T03:54:10.045Z,13.75
2023-07-25T03:56:36.911Z,13.76
2023-07-25T03:59:04.862Z,13.78
2023-07-25T04:01:32.084Z,13.78
2023-07-25T04:03:59.012Z,13.76
2023-07-25T04:06:25.690Z,13.80
2023-07-25T04:08:52.257Z,13.80
2023-07-25T04:11:18.835Z,13.79
2023-07-25T04:13:45.433Z,13.77
2023-07-25T04:16:13.392Z,13.75
2023-07-25T04:18:40.094Z,13.74
2023-07-25T04:21:06.670Z,13.75
2023-07-25T04:23:33.210Z,13.75
2023-07-25T04:25:59.809Z,13.77
2023-07-25T04:28:26.478Z,13.77
2023-07-25T04:30:53.040Z,13.78
2023-07-25T04:33:20.931Z,13.82
2023-07-25T04:35:47.541Z,13.77
2023-07-25T04:38:14.878Z,13.77
2023-07-25T04:40:43.100Z,13.87
2023-07-25T04:43:09.682Z,13.84
2023-07-25T04:45:36.572Z,13.86
2023-07-25T04:48:03.634Z,13.82
2023-07-25T04:50:31.559Z,13.83
2023-07-25T04:52:58.130Z,13.82
2023-07-25T04:55:24.838Z,13.83
2023-07-25T04:57:52.724Z,13.79
2023-07-25T05:00:19.446Z,13.81
2023-07-25T05:02:46.118Z,13.75
2023-07-25T05:05:12.765Z,13.79
2023-07-25T05:07:40.644Z,13.79
2023-07-25T05:10:08.160Z,13.83
2023-07-25T05:12:34.771Z,13.84
2023-07-25T05:15:01.317Z,13.91
2023-07-25T05:17:27.953Z,13.99
2023-07-25T05:19:54.537Z,14.01
2023-07-25T05:22:21.100Z,14.04
2023-07-25T05:24:49.129Z,14.06
2023-07-25T05:27:15.830Z,14.05
2023-07-25T05:29:42.385Z,14.12
2023-07-25T05:32:09.292Z,14.11
2023-07-25T05:34:35.834Z,14.16
2023-07-25T05:37:02.357Z,14.25
2023-07-25T05:39:28.887Z,14.28
2023-07-25T05:41:56.764Z,14.29
2023-07-25T05:44:23.306Z,14.37
2023-07-25T05:46:49.857Z,14.38
2023-07-25T05:49:16.438Z,14.41
2023-07-25T05:51:43.031Z,14.45
2023-07-25T05:54:09.580Z,14.53
2023-07-25T05:56:36.099Z,14.66
2023-07-25T05:59:03.960Z,14.72
2023-07-25T06:01:31.018Z,14.83
2023-07-25T06:03:57.904Z,14.93
2023-07-25T06:06:24.498Z,15.01
2023-07-25T06:08:51.066Z,15.10
2023-07-25T06:11:17.597Z,15.10
2023-07-25T06:13:44.222Z,15.16
2023-07-25T06:16:12.165Z,15.20
2023-07-25T06:18:38.682Z,15.26
2023-07-25T06:21:05.218Z,15.22
2023-07-25T06:23:31.842Z,15.20
2023-07-25T06:25:58.669Z,15.15
2023-07-25T06:28:25.219Z,15.17
2023-07-25T06:30:51.827Z,15.16
2023-07-25T06:33:19.784Z,15.19
2023-07-25T06:35:46.392Z,15.17
2023-07-25T06:38:12.965Z,15.19
2023-07-25T06:40:39.527Z,15.18
2023-07-25T06:43:06.080Z,15.24
2023-07-25T06:45:32.670Z,15.19
2023-07-25T06:47:59.256Z,15.12
2023-07-25T06:50:27.171Z,15.19
2023-07-25T06:52:53.728Z,15.17
2023-07-25T06:55:20.309Z,15.15
2023-07-25T06:57:46.893Z,15.20
2023-07-25T07:00:14.673Z,15.15
2023-07-25T07:02:42.112Z,15.19
2023-07-25T07:05:23.397Z,15.28
2023-07-25T07:07:55.508Z,15.25
2023-07-25T07:10:22.134Z,15.26
2023-07-25T07:12:48.672Z,15.29
2023-07-25T07:15:15.608Z,15.37
2023-07-25T07:17:42.217Z,15.33
2023-07-25T07:20:09.761Z,15.37
2023-07-25T07:22:36.325Z,15.30
2023-07-25T07:25:04.657Z,15.33
2023-07-25T07:27:31.199Z,15.33
2023-07-25T07:29:57.696Z,15.35
2023-07-25T07:32:24.314Z,15.46
2023-07-25T07:34:50.840Z,15.50
2023-07-25T07:37:17.387Z,15.60
2023-07-25T07:39:43.902Z,15.72
2023-07-25T07:42:11.808Z,15.79
2023-07-25T07:44:38.364Z,15.84
2023-07-25T07:47:05.189Z,15.92
2023-07-25T07:49:33.418Z,16.07
2023-07-25T07:52:13.557Z,16.17
2023-07-25T07:54:44.108Z,16.11
2023-07-25T07:57:12.066Z,16.18
2023-07-25T07:59:38.821Z,16.28
2023-07-25T08:02:05.449Z,16.41
2023-07-25T08:04:31.996Z,16.49
2023-07-25T08:06:58.600Z,16.63
2023-07-25T08:09:25.175Z,16.77
2023-07-25T08:11:51.712Z,16.85
2023-07-25T08:14:19.570Z,16.94
2023-07-25T08:16:46.209Z,17.03
2023-07-25T08:19:12.809Z,17.08
2023-07-25T08:21:39.800Z,17.09
2023-07-25T08:24:06.574Z,17.12
2023-07-25T08:26:33.220Z,17.08
2023-07-25T08:28:59.873Z,16.97
2023-07-25T08:31:27.798Z,16.83
2023-07-25T08:33:54.366Z,16.70
2023-07-25T08:36:20.940Z,16.68
2023-07-25T08:38:47.455Z,16.67
2023-07-25T08:41:17.564Z,16.60
2023-07-25T08:43:44.716Z,16.58
2023-07-25T08:46:12.538Z,16.45
2023-07-25T08:48:42.041Z,16.42
2023-07-25T08:51:16.727Z,16.42
2023-07-25T08:53:53.312Z,16.37
2023-07-25T08:56:20.418Z,16.33
2023-07-25T08:58:48.173Z,16.34
2023-07-25T09:01:14.894Z,16.34
2023-07-25T09:03:43.600Z,16.36
2023-07-25T09:06:11.973Z,16.36
2023-07-25T09:08:39.451Z,16.35
2023-07-25T09:11:09.639Z,16.34
2023-07-25T09:13:36.987Z,16.35
2023-07-25T09:16:04.045Z,16.35
2023-07-25T09:18:30.891Z,16.30
2023-07-25T09:20:59.217Z,16.30
2023-07-25T09:23:25.775Z,16.28
2023-07-25T09:26:03.771Z,16.15
2023-07-25T09:28:30.837Z,15.87
2023-07-25T09:30:57.926Z,15.64
2023-07-25T09:33:25.905Z,15.52
2023-07-25T09:35:53.018Z,15.50
2023-07-25T09:38:21.775Z,15.55
2023-07-25T09:40:49.015Z,15.61
2023-07-25T09:43:22.582Z,15.67
2023-07-25T09:45:49.263Z,15.71
2023-07-25T09:48:16.748Z,15.74
2023-07-25T09:50:43.779Z,15.82
2023-07-25T09:53:11.136Z,15.90
2023-07-25T09:55:39.153Z,15.99
2023-07-25T09:58:06.228Z,16.11
2023-07-25T10:00:33.039Z,16.26
2023-07-25T10:03:00.173Z,16.39
2023-07-25T10:05:27.549Z,16.58
2023-07-25T10:07:55.454Z,16.76
2023-07-25T10:10:25.331Z,17.05
2023-07-25T10:12:53.655Z,17.33
2023-07-25T10:15:20.701Z,17.63
2023-07-25T10:17:47.382Z,17.85
2023-07-25T10:20:21.309Z,17.86
2023-07-25T10:22:48.069Z,17.74
2023-07-25T10:25:20.448Z,17.66
2023-07-25T10:27:47.502Z,17.58
2023-07-25T10:30:26.663Z,17.53
2023-07-25T10:32:54.666Z,17.63
2023-07-25T10:35:40.744Z,17.85
2023-07-25T10:38:09.821Z,17.96
2023-07-25T10:40:56.570Z,18.11
2023-07-25T10:43:27.604Z,18.26
2023-07-25T10:45:56.728Z,18.42
2023-07-25T10:48:43.505Z,18.59
2023-07-25T10:51:10.106Z,18.61
2023-07-25T10:53:36.826Z,18.56
2023-07-25T10:56:17.116Z,18.46
2023-07-25T10:59:09.508Z,18.39
2023-07-25T11:01:40.152Z,18.46
2023-07-25T11:04:27.509Z,18.61
2023-07-25T11:06:55.435Z,18.74
2023-07-25T11:09:22.862Z,18.88
2023-07-25T11:11:51.175Z,18.86
2023-07-25T11:14:19.054Z,18.91
2023-07-25T11:16:49.201Z,18.96
2023-07-25T11:19:15.783Z,18.97
2023-07-25T11:21:43.436Z,19.14
2023-07-25T11:24:11.087Z,18.99
2023-07-25T11:26:38.071Z,18.93
2023-07-25T11:29:05.789Z,19.09
2023-07-25T11:31:32.699Z,19.26
2023-07-25T11:34:10.068Z,19.40
2023-07-25T11:36:37.639Z,19.41
2023-07-25T11:39:04.325Z,19.43
2023-07-25T11:41:31.158Z,19.45
2023-07-25T11:43:59.043Z,19.64
2023-07-25T11:46:26.447Z,19.89
2023-07-25T11:48:53.657Z,19.97
2023-07-25T11:51:21.821Z,19.98
2023-07-25T11:53:48.501Z,19.87
2023-07-25T11:56:15.151Z,19.65
2023-07-25T11:58:47.589Z,19.63
2023-07-25T12:01:14.204Z,19.66
2023-07-25T12:03:46.720Z,19.77
2023-07-25T12:06:13.355Z,19.67
2023-07-25T12:08:44.146Z,19.61
2023-07-25T12:11:11.873Z,19.37
2023-07-25T12:13:46.048Z,19.20
2023-07-25T12:16:28.316Z,18.98
2023-07-25T12:18:57.116Z,18.90
2023-07-25T12:21:26.314Z,18.77
2023-07-25T12:23:55.430Z,18.62
2023-07-25T12:26:22.212Z,18.66
2023-07-25T12:28:50.600Z,18.81
2023-07-25T12:31:17.773Z,18.97
2023-07-25T12:33:44.928Z,18.78
2023-07-25T12:36:12.516Z,18.74
2023-07-25T12:38:39.113Z,18.75
2023-07-25T12:41:08.455Z,18.66
2023-07-25T12:43:35.388Z,18.69
2023-07-25T12:46:02.314Z,18.71
2023-07-25T12:48:28.904Z,18.70
2023-07-25T12:50:55.672Z,18.77
2023-07-25T12:53:22.219Z,18.94
2023-07-25T12:55:48.777Z,19.06
2023-07-25T12:58:16.902Z,19.18
2023-07-25T13:00:43.658Z,19.42
2023-07-25T13:03:10.486Z,19.44
2023-07-25T13:05:37.359Z,19.36
2023-07-25T13:08:04.559Z,19.28
2023-07-25T13:10:31.135Z,19.40
2023-07-25T13:12:57.727Z,19.64
2023-07-25T13:15:25.670Z,19.74
2023-07-25T13:17:52.297Z,19.60
2023-07-25T13:20:18.914Z,19.50
2023-07-25T13:22:45.437Z,19.40
2023-07-25T13:25:12.048Z,19.48
2023-07-25T13:27:38.648Z,19.69
2023-07-25T13:30:06.509Z,19.81
2023-07-25T13:32:34.532Z,19.89
2023-07-25T13:35:01.186Z,19.97
2023-07-25T13:37:27.909Z,20.01
2023-07-25T13:39:54.500Z,19.87
2023-07-25T13:42:21.103Z,19.73
2023-07-25T13:44:47.705Z,19.81
2023-07-25T13:47:14.400Z,19.79
2023-07-25T13:49:42.594Z,19.81
2023-07-25T13:52:09.210Z,19.82
2023-07-25T13:54:35.926Z,19.88
2023-07-25T13:57:02.503Z,19.95
2023-07-25T13:59:29.839Z,20.04
2023-07-25T14:01:56.387Z,20.04
2023-07-25T14:04:22.934Z,20.00
2023-07-25T14:06:50.924Z,20.10
2023-07-25T14:09:17.592Z,20.22
2023-07-25T14:11:44.284Z,20.36
2023-07-25T14:14:10.933Z,20.63
2023-07-25T14:16:37.459Z,20.63
2023-07-25T14:19:04.154Z,20.54
2023-07-25T14:21:30.899Z,20.41
2023-07-25T14:23:58.981Z,20.37
2023-07-25T14:26:25.493Z,20.36
2023-07-25T14:28:52.030Z,20.40
2023-07-25T14:31:18.681Z,20.50
2023-07-25T14:33:45.282Z,20.55
2023-07-25T14:36:11.847Z,20.69
2023-07-25T14:38:38.363Z,20.69
2023-07-25T14:41:07.377Z,20.57
2023-07-25T14:43:34.035Z,20.44
2023-07-25T14:46:00.611Z,20.38
2023-07-25T14:48:27.196Z,20.44
2023-07-25T14:50:53.804Z,20.29
2023-07-25T14:53:20.472Z,20.36
2023-07-25T14:55:47.051Z,20.54
2023-07-25T14:58:15.160Z,20.64
2023-07-25T15:00:41.901Z,20.58
2023-07-25T15:03:08.702Z,20.46
2023-07-25T15:05:35.302Z,20.28
2023-07-25T15:08:01.968Z,20.05
2023-07-25T15:10:28.819Z,19.97
2023-07-25T15:12:55.424Z,19.89
2023-07-25T15:15:23.370Z,19.83
2023-07-25T15:17:49.992Z,19.93
2023-07-25T15:20:16.627Z,19.97
2023-07-25T15:22:43.952Z,20.07
2023-07-25T15:25:10.546Z,20.05
2023-07-25T15:27:37.139Z,20.09
2023-07-25T15:30:04.232Z,20.00
2023-07-25T15:32:32.401Z,19.81
2023-07-25T15:34:58.970Z,19.74
2023-07-25T15:37:25.872Z,19.73
2023-07-25T15:39:52.423Z,19.77
2023-07-25T15:42:19.005Z,19.76
2023-07-25T15:44:45.575Z,19.89
2023-07-25T15:47:12.147Z,19.80
2023-07-25T15:49:40.010Z,19.93
2023-07-25T15:52:07.064Z,19.99
2023-07-25T15:54:33.670Z,20.00
2023-07-25T15:57:00.219Z,19.96
2023-07-25T15:59:26.738Z,19.98
2023-07-25T16:01:53.845Z,19.92
2023-07-25T16:04:21.032Z,20.08
2023-07-25T16:06:48.907Z,20.08
2023-07-25T16:09:15.510Z,20.19
2023-07-25T16:11:42.183Z,20.15
2023-07-25T16:14:08.828Z,20.17
2023-07-25T16:16:35.465Z,20.16
2023-07-25T16:19:02.229Z,20.14
2023-07-25T16:21:31.148Z,20.04
2023-07-25T16:23:59.297Z,20.15
2023-07-25T16:26:25.928Z,20.04
2023-07-25T16:28:52.478Z,20.06
2023-07-25T16:31:31.909Z,20.03
2023-07-25T16:33:59.901Z,19.96
2023-07-25T16:36:26.486Z,19.93
2023-07-25T16:38:53.493Z,19.88
2023-07-25T16:41:21.378Z,19.87
2023-07-25T16:43:47.959Z,20.04
2023-07-25T16:46:14.677Z,19.94
2023-07-25T16:48:41.513Z,19.96
2023-07-25T16:51:08.447Z,19.85
2023-07-25T16:53:35.056Z,19.63
2023-07-25T16:56:01.625Z,19.55
2023-07-25T16:58:29.680Z,19.52
2023-07-25T17:00:56.247Z,19.52
2023-07-25T17:03:23.279Z,19.71
2023-07-25T17:05:50.051Z,19.70
2023-07-25T17:08:16.748Z,19.73
2023-07-25T17:10:44.670Z,19.85
2023-07-25T17:13:11.299Z,19.72
2023-07-25T17:15:39.197Z,19.69
2023-07-25T17:18:05.824Z,19.73
2023-07-25T17:20:32.428Z,19.81
2023-07-25T17:22:59.062Z,19.78
2023-07-25T17:25:25.584Z,19.79
2023-07-25T17:27:54.403Z,19.76
2023-07-25T17:30:21.884Z,19.68
2023-07-25T17:32:49.977Z,19.68
2023-07-25T17:35:23.910Z,19.63
2023-07-25T17:37:58.524Z,19.50
2023-07-25T17:40:25.261Z,19.54
2023-07-25T17:42:51.845Z,19.53
2023-07-25T17:45:18.392Z,19.52
2023-07-25T17:47:45.039Z,19.49
2023-07-25T17:50:12.975Z,19.42
2023-07-25T17:52:39.513Z,19.32
2023-07-25T17:55:07.360Z,19.36
2023-07-25T17:57:33.909Z,19.24
2023-07-25T18:00:00.495Z,19.18
2023-07-25T18:02:27.079Z,19.18
2023-07-25T18:04:53.696Z,19.16
2023-07-25T18:07:21.579Z,19.25
2023-07-25T18:09:48.124Z,19.21
2023-07-25T18:12:14.764Z,19.10
2023-07-25T18:14:41.407Z,19.17
2023-07-25T18:17:07.963Z,19.40
2023-07-25T18:19:34.612Z,19.50
2023-07-25T18:22:01.153Z,19.57
2023-07-25T18:24:29.113Z,19.45
2023-07-25T18:26:55.722Z,19.49
2023-07-25T18:29:22.302Z,19.45
2023-07-25T18:31:49.073Z,19.42
2023-07-25T18:34:15.778Z,19.27
2023-07-25T18:36:42.354Z,19.20
2023-07-25T18:39:08.919Z,19.06
2023-07-25T18:41:36.872Z,18.93
2023-07-25T18:44:03.470Z,18.82
2023-07-25T18:46:30.442Z,18.63
2023-07-25T18:48:57.254Z,18.48
2023-07-25T18:51:23.841Z,18.34
2023-07-25T18:53:50.405Z,18.23
2023-07-25T18:56:16.965Z,18.15
2023-07-25T18:58:44.843Z,18.06
2023-07-25T19:01:11.499Z,17.92
2023-07-25T19:03:38.122Z,17.87
2023-07-25T19:06:04.684Z,17.74
2023-07-25T19:08:31.277Z,17.63
2023-07-25T19:10:57.839Z,17.54
2023-07-25T19:13:24.385Z,17.44
2023-07-25T19:15:52.308Z,17.37
2023-07-25T19:18:18.874Z,17.27
2023-07-25T19:20:45.481Z,17.23
2023-07-25T19:23:25.046Z,17.20
2023-07-25T19:25:56.316Z,17.16
2023-07-25T19:28:22.871Z,17.07
2023-07-25T19:30:49.472Z,16.99
2023-07-25T19:33:17.456Z,16.94
2023-07-25T19:35:51.016Z,16.87
2023-07-25T19:38:17.614Z,16.84
2023-07-25T19:40:44.485Z,16.80
2023-07-25T19:43:11.071Z,16.83
2023-07-25T19:45:37.618Z,16.78
2023-07-25T19:48:04.467Z,16.71
2023-07-25T19:50:32.547Z,16.61
2023-07-25T19:52:59.193Z,16.52
2023-07-25T19:55:25.780Z,16.43
2023-07-25T19:57:52.375Z,16.30
2023-07-25T20:00:19.022Z,16.26
2023-07-25T20:02:45.709Z,16.22
2023-07-25T20:05:12.329Z,16.20
2023-07-25T20:07:40.201Z,16.18
2023-07-25T20:10:07.343Z,16.14
2023-07-25T20:12:33.877Z,16.08
2023-07-25T20:15:00.475Z,16.07
2023-07-25T20:17:27.092Z,16.00
2023-07-25T20:19:53.680Z,15.96
2023-07-25T20:22:20.241Z,15.90
2023-07-25T20:24:48.195Z,15.85
2023-07-25T20:27:14.809Z,15.79
2023-07-25T20:29:41.356Z,15.80
2023-07-25T20:32:09.188Z,15.77
2023-07-25T20:34:35.719Z,15.78
2023-07-25T20:37:02.361Z,15.78
2023-07-25T20:39:28.905Z,15.75
2023-07-25T20:41:56.836Z,15.72
2023-07-25T20:44:23.462Z,15.67
2023-07-25T20:46:50.076Z,15.62
2023-07-25T20:49:16.717Z,15.61
2023-07-25T20:51:43.238Z,15.58
2023-07-25T20:54:09.768Z,15.55
2023-07-25T20:56:36.361Z,15.50
2023-07-25T20:59:04.272Z,15.47
2023-07-25T21:01:30.856Z,15.46
2023-07-25T21:03:57.488Z,15.41
2023-07-25T21:06:24.131Z,15.37
2023-07-25T21:08:50.665Z,15.33
2023-07-25T21:11:17.227Z,15.30
2023-07-25T21:13:43.814Z,15.26
2023-07-25T21:16:11.669Z,15.24
2023-07-25T21:18:38.308Z,15.18
2023-07-25T21:21:04.855Z,15.16
2023-07-25T21:23:31.532Z,15.14
2023-07-25T21:25:58.162Z,15.11
2023-07-25T21:28:24.782Z,15.10
2023-07-25T21:30:51.379Z,15.08
2023-07-25T21:33:19.366Z,15.06
2023-07-25T21:35:45.952Z,15.03
2023-07-25T21:38:12.526Z,15.02
2023-07-25T21:40:39.098Z,14.99
2023-07-25T21:43:05.674Z,14.96
2023-07-25T21:45:32.316Z,14.93
2023-07-25T21:47:58.907Z,14.90
2023-07-25T21:50:26.936Z,14.90
2023-07-25T21:52:53.558Z,14.90
2023-07-25T21:55:20.172Z,14.92
2023-07-25T21:57:46.720Z,14.93
2023-07-25T22:00:13.492Z,14.93
2023-07-25T22:02:41.199Z,14.94
2023-07-25T22:05:08.200Z,14.94
2023-07-25T22:07:36.117Z,14.92
2023-07-25T22:10:02.678Z,14.92
2023-07-25T22:12:29.340Z,14.96
2023-07-25T22:14:55.958Z,14.96
2023-07-25T22:17:22.566Z,14.95
2023-07-25T22:19:49.091Z,14.93
2023-07-25T22:22:15.666Z,14.91
2023-07-25T22:24:43.567Z,14.90
2023-07-25T22:27:10.142Z,14.90
2023-07-25T22:29:36.653Z,14.91
2023-07-25T22:32:03.250Z,14.90
2023-07-25T22:34:29.852Z,14.90
2023-07-25T22:36:56.411Z,14.90
2023-07-25T22:39:23.029Z,14.87
2023-07-25T22:41:50.970Z,14.86
2023-07-25T22:44:17.698Z,14.87
2023-07-25T22:46:44.453Z,14.86
2023-07-25T22:49:11.052Z,14.87
2023-07-25T22:51:37.603Z,14.87
2023-07-25T22:54:04.200Z,14.84
2023-07-25T22:56:30.888Z,14.84
2023-07-25T22:58:59.101Z,14.83
2023-07-25T23:01:25.729Z,14.83
2023-07-25T23:03:52.307Z,14.84
2023-07-25T23:06:18.844Z,14.82
2023-07-25T23:08:45.384Z,14.79
2023-07-25T23:11:11.939Z,14.80
2023-07-25T23:13:38.513Z,14.78
2023-07-25T23:16:06.803Z,14.79
2023-07-25T23:18:33.363Z,14.79
2023-07-25T23:21:00.420Z,14.77
2023-07-25T23:23:27.058Z,14.79
2023-07-25T23:25:53.602Z,14.79
2023-07-25T23:28:20.141Z,14.79
2023-07-25T23:30:46.733Z,14.81
2023-07-25T23:33:14.749Z,14.82
2023-07-25T23:35:41.333Z,14.79
2023-07-25T23:38:07.876Z,14.82
2023-07-25T23:40:34.530Z,14.81
2023-07-25T23:43:01.088Z,14.79
2023-07-25T23:45:27.736Z,14.77
2023-07-25T23:47:54.288Z,14.76
2023-07-25T23:50:22.225Z,14.74
2023-07-25T23:52:48.832Z,14.72
2023-07-25T23:55:15.919Z,14.72
2023-07-25T23:57:42.482Z,14.71
